createdAt,value
2022-09-13T00:01:52.160Z,65.66
2022-09-13T00:04:19.792Z,66.06
2022-09-13T00:06:47.040Z,65.23
2022-09-13T00:09:15.464Z,65.61
2022-09-13T00:11:42.727Z,65.87
2022-09-13T00:14:10.462Z,66.15
2022-09-13T00:16:37.916Z,64.88
2022-09-13T00:19:05.278Z,64.81
2022-09-13T00:21:32.552Z,64.72
2022-09-13T00:23:59.871Z,64.25
2022-09-13T00:26:28.479Z,63.69
2022-09-13T00:28:58.081Z,63.86
2022-09-13T00:31:28.226Z,64.79
2022-09-13T00:33:58.521Z,65.38
2022-09-13T00:36:25.770Z,65.31
2022-09-13T00:38:53.085Z,64.81
2022-09-13T00:41:21.472Z,64.36
2022-09-13T00:43:51.630Z,66.02
2022-09-13T00:46:33.802Z,66.28
2022-09-13T00:49:16.492Z,65.73
2022-09-13T00:51:45.755Z,65.63
2022-09-13T00:54:16.017Z,65.01
2022-09-13T00:56:48.106Z,66.12
2022-09-13T00:59:25.217Z,66.14
2022-09-13T01:01:56.491Z,66.95
2022-09-13T01:04:27.890Z,67.54
2022-09-13T01:06:59.591Z,66.49
2022-09-13T01:09:30.616Z,66.71
2022-09-13T01:12:14.658Z,66.24
2022-09-13T01:14:42.231Z,66.92
2022-09-13T01:17:09.815Z,67.73
2022-09-13T01:19:37.223Z,67.28
2022-09-13T01:22:42.715Z,67.72
2022-09-13T01:25:48.520Z,68.16
2022-09-13T01:28:24.535Z,68.57
2022-09-13T01:31:10.527Z,70.56
2022-09-13T01:34:15.125Z,69.87
2022-09-13T01:36:59.200Z,68.58
2022-09-13T01:40:00.587Z,68.73
2022-09-13T01:42:40.042Z,69.90
2022-09-13T01:45:31.728Z,69.53
2022-09-13T01:48:13.884Z,70.76
2022-09-13T01:50:47.606Z,70.81
2022-09-13T01:53:37.956Z,70.56
2022-09-13T01:56:05.227Z,70.31
2022-09-13T01:58:48.699Z,70.84
2022-09-13T02:01:24.258Z,70.63
2022-09-13T02:04:15.259Z,71.21
2022-09-13T02:07:05.322Z,69.07
2022-09-13T02:09:43.383Z,69.28
2022-09-13T02:12:19.594Z,68.81
2022-09-13T02:14:58.375Z,69.40
2022-09-13T02:17:32.464Z,69.08
2022-09-13T02:20:03.650Z,71.24
2022-09-13T02:22:34.700Z,69.41
2022-09-13T02:25:09.011Z,69.89
2022-09-13T02:27:38.739Z,69.57
2022-09-13T02:30:10.287Z,70.04
2022-09-13T02:32:42.406Z,70.19
2022-09-13T02:35:16.810Z,69.79
2022-09-13T02:37:48.548Z,69.32
2022-09-13T02:40:22.695Z,70.03
2022-09-13T02:42:56.053Z,70.40
2022-09-13T02:45:31.974Z,70.37
2022-09-13T02:48:12.467Z,70.90
2022-09-13T02:51:07.450Z,71.61
2022-09-13T02:53:43.190Z,71.41
2022-09-13T02:56:34.536Z,71.52
2022-09-13T02:59:16.849Z,71.67
2022-09-13T03:01:50.704Z,71.51
2022-09-13T03:04:18.526Z,71.51
2022-09-13T03:06:45.787Z,71.51
2022-09-13T03:09:14.025Z,71.02
2022-09-13T03:12:04.543Z,71.68
2022-09-13T03:14:31.805Z,72.27
2022-09-13T03:17:25.018Z,72.72
2022-09-13T03:20:08.326Z,73.46
2022-09-13T03:23:09.765Z,74.00
2022-09-13T03:26:26.687Z,73.89
2022-09-13T03:29:12.755Z,73.55
2022-09-13T03:31:56.636Z,73.42
2022-09-13T03:34:52.095Z,74.11
2022-09-13T03:37:31.559Z,73.62
2022-09-13T03:40:15.601Z,74.58
2022-09-13T03:42:50.020Z,75.10
2022-09-13T03:45:21.558Z,74.65
2022-09-13T03:47:51.275Z,74.69
2022-09-13T03:50:22.329Z,74.30
2022-09-13T03:53:00.545Z,75.03
2022-09-13T03:55:30.119Z,74.31
2022-09-13T03:57:57.416Z,74.31
2022-09-13T04:00:24.881Z,75.46
2022-09-13T04:02:52.098Z,75.90
2022-09-13T04:05:19.320Z,76.31
2022-09-13T04:07:46.695Z,76.87
2022-09-13T04:10:14.259Z,75.94
2022-09-13T04:12:41.528Z,74.75
2022-09-13T04:15:09.990Z,75.31
2022-09-13T04:17:37.191Z,74.55
2022-09-13T04:20:07.646Z,75.54
2022-09-13T04:22:35.090Z,76.35
2022-09-13T04:25:02.888Z,77.33
2022-09-13T04:27:30.443Z,75.42
2022-09-13T04:29:57.868Z,76.13
2022-09-13T04:32:25.157Z,77.63
2022-09-13T04:34:52.515Z,75.03
2022-09-13T04:37:20.951Z,75.16
2022-09-13T04:39:48.311Z,76.20
2022-09-13T04:42:15.751Z,77.44
2022-09-13T04:44:44.822Z,77.45
2022-09-13T04:47:12.110Z,77.10
2022-09-13T04:49:40.038Z,77.99
2022-09-13T04:52:07.348Z,77.65
2022-09-13T04:54:38.014Z,77.43
2022-09-13T04:57:06.366Z,76.94
2022-09-13T04:59:34.509Z,76.89
2022-09-13T05:02:04.906Z,77.57
2022-09-13T05:04:32.328Z,78.41
2022-09-13T05:06:59.611Z,77.48
2022-09-13T05:09:27.378Z,78.75
2022-09-13T05:11:57.436Z,80.90
2022-09-13T05:14:24.679Z,79.95
2022-09-13T05:16:52.008Z,79.08
2022-09-13T05:19:19.315Z,77.81
2022-09-13T05:21:46.658Z,76.80
2022-09-13T05:24:13.885Z,76.09
2022-09-13T05:26:41.284Z,76.15
2022-09-13T05:29:08.635Z,76.04
2022-09-13T05:31:39.806Z,76.11
2022-09-13T05:34:10.754Z,76.17
2022-09-13T05:36:39.046Z,76.98
2022-09-13T05:41:55.115Z,76.29
2022-09-13T05:44:22.899Z,75.38
2022-09-13T05:46:50.272Z,75.25
2022-09-13T05:49:17.575Z,73.12
2022-09-13T05:51:45.452Z,72.06
2022-09-13T05:54:13.145Z,69.79
2022-09-13T05:56:40.439Z,68.32
2022-09-13T05:59:09.002Z,65.68
2022-09-13T06:01:36.733Z,63.19
2022-09-13T06:04:04.021Z,60.10
2022-09-13T06:06:31.341Z,56.83
2022-09-13T06:08:58.722Z,54.57
2022-09-13T06:11:26.653Z,57.14
2022-09-13T06:13:54.271Z,62.05
2022-09-13T06:16:21.958Z,61.48
2022-09-13T06:18:50.148Z,56.19
2022-09-13T06:21:20.593Z,51.90
2022-09-13T06:23:51.156Z,49.61
2022-09-13T06:26:24.813Z,48.68
2022-09-13T06:28:54.506Z,47.65
2022-09-13T06:31:24.814Z,43.35
2022-09-13T06:34:04.787Z,44.06
2022-09-13T06:36:32.027Z,43.13
2022-09-13T06:39:00.692Z,43.49
2022-09-13T06:41:28.328Z,43.79
2022-09-13T06:43:59.685Z,43.94
2022-09-13T06:46:29.474Z,43.47
2022-09-13T06:49:00.827Z,43.15
2022-09-13T06:51:29.984Z,41.96
2022-09-13T06:53:57.509Z,39.81
2022-09-13T06:56:29.222Z,39.92
2022-09-13T06:58:59.430Z,38.63
2022-09-13T07:01:38.079Z,38.51
2022-09-13T07:04:10.886Z,38.31
2022-09-13T07:06:41.663Z,39.22
2022-09-13T07:09:12.884Z,39.09
2022-09-13T07:11:41.916Z,38.95
2022-09-13T07:14:13.923Z,38.90
2022-09-13T07:16:41.360Z,39.22
2022-09-13T07:19:15.020Z,39.09
2022-09-13T07:21:43.269Z,37.52
2022-09-13T07:24:10.668Z,38.71
2022-09-13T07:26:38.896Z,39.25
2022-09-13T07:29:09.196Z,37.78
2022-09-13T07:31:40.040Z,38.34
2022-09-13T07:34:12.694Z,38.33
2022-09-13T07:36:39.998Z,38.76
2022-09-13T07:39:12.116Z,37.65
2022-09-13T07:41:42.068Z,37.90
2022-09-13T07:44:14.447Z,37.32
2022-09-13T07:46:43.718Z,37.66
2022-09-13T07:49:18.183Z,37.48
2022-09-13T07:51:45.827Z,38.23
2022-09-13T07:54:17.615Z,38.83
2022-09-13T07:56:45.523Z,37.57
2022-09-13T07:59:15.133Z,37.74
2022-09-13T08:01:49.111Z,37.90
2022-09-13T08:04:19.808Z,37.90
2022-09-13T08:06:47.738Z,38.63
2022-09-13T08:09:16.053Z,36.18
2022-09-13T08:11:46.159Z,38.11
2022-09-13T08:14:16.248Z,38.25
2022-09-13T08:16:43.635Z,36.89
2022-09-13T08:19:14.590Z,36.54
2022-09-13T08:21:42.731Z,37.17
2022-09-13T08:24:17.789Z,36.76
2022-09-13T08:26:46.053Z,36.66
2022-09-13T08:29:16.643Z,37.76
2022-09-13T08:31:44.170Z,34.82
2022-09-13T08:34:14.531Z,36.28
2022-09-13T08:36:42.469Z,36.17
2022-09-13T08:39:13.429Z,36.88
2022-09-13T08:41:42.004Z,36.33
2022-09-13T08:44:29.635Z,34.01
2022-09-13T08:47:09.898Z,34.81
2022-09-13T08:49:46.135Z,36.12
2022-09-13T08:52:33.454Z,36.33
2022-09-13T08:55:08.395Z,35.41
2022-09-13T08:57:53.222Z,35.74
2022-09-13T09:00:52.824Z,33.26
2022-09-13T09:03:32.800Z,33.93
2022-09-13T09:06:00.074Z,30.98
2022-09-13T09:08:44.567Z,31.36
2022-09-13T09:11:19.770Z,30.50
2022-09-13T09:14:02.683Z,30.75
2022-09-13T09:16:37.709Z,32.35
2022-09-13T09:19:19.609Z,34.31
2022-09-13T09:21:50.581Z,34.79
2022-09-13T09:24:21.906Z,36.75
2022-09-13T09:26:49.656Z,37.16
2022-09-13T09:29:25.792Z,33.57
2022-09-13T09:32:10.253Z,35.07
2022-09-13T09:35:11.071Z,35.42
2022-09-13T09:37:40.981Z,36.18
2022-09-13T09:40:13.132Z,36.65
2022-09-13T09:42:45.930Z,37.15
2022-09-13T09:45:34.854Z,36.28
2022-09-13T09:48:09.408Z,35.97
2022-09-13T09:50:44.047Z,34.67
2022-09-13T09:53:19.586Z,36.35
2022-09-13T09:56:00.557Z,37.65
2022-09-13T09:58:43.485Z,36.07
2022-09-13T10:01:29.329Z,35.94
2022-09-13T10:04:08.563Z,36.47
2022-09-13T10:06:38.529Z,33.18
2022-09-13T10:09:14.840Z,32.79
2022-09-13T10:11:49.246Z,34.81
2022-09-13T10:14:38.102Z,37.13
2022-09-13T10:17:21.324Z,37.76
2022-09-13T10:19:56.437Z,36.38
2022-09-13T10:22:24.673Z,31.68
2022-09-13T10:24:53.138Z,34.74
2022-09-13T10:27:34.652Z,34.28
2022-09-13T10:30:05.621Z,36.18
2022-09-13T10:32:33.919Z,36.90
2022-09-13T10:35:09.138Z,36.67
2022-09-13T10:37:37.502Z,36.46
2022-09-13T10:40:17.839Z,37.12
2022-09-13T10:42:57.707Z,36.05
2022-09-13T10:45:27.762Z,34.74
2022-09-13T10:48:03.660Z,37.52
2022-09-13T10:50:32.169Z,39.60
2022-09-13T10:53:00.784Z,37.63
2022-09-13T10:55:42.583Z,37.22
2022-09-13T10:58:09.872Z,37.42
2022-09-13T11:01:21.930Z,37.02
2022-09-13T11:04:11.194Z,37.79
2022-09-13T11:07:01.531Z,37.44
2022-09-13T11:10:10.984Z,37.95
2022-09-13T11:12:45.659Z,36.04
2022-09-13T11:15:34.947Z,34.92
2022-09-13T11:18:14.494Z,35.85
2022-09-13T11:20:51.103Z,37.96
2022-09-13T11:23:40.212Z,36.98
2022-09-13T11:26:29.997Z,37.24
2022-09-13T11:29:16.215Z,37.97
2022-09-13T11:32:38.152Z,37.41
2022-09-13T11:35:05.314Z,36.92
2022-09-13T11:37:41.467Z,36.29
2022-09-13T11:40:27.043Z,37.02
2022-09-13T11:43:18.254Z,38.77
2022-09-13T11:46:00.525Z,38.50
2022-09-13T11:48:39.407Z,39.53
2022-09-13T11:51:12.950Z,39.30
2022-09-13T11:53:43.520Z,38.79
2022-09-13T11:56:23.081Z,39.19
2022-09-13T11:58:53.829Z,38.86
2022-09-13T12:01:28.062Z,37.97
2022-09-13T12:04:05.294Z,38.39
2022-09-13T12:06:39.378Z,38.14
2022-09-13T12:09:31.862Z,39.27
2022-09-13T12:12:06.525Z,38.51
2022-09-13T12:14:52.558Z,40.11
2022-09-13T12:17:25.566Z,38.88
2022-09-13T12:19:56.030Z,37.90
2022-09-13T12:22:32.830Z,37.79
2022-09-13T12:25:06.090Z,38.05
2022-09-13T12:27:48.803Z,38.33
2022-09-13T12:30:19.309Z,36.99
2022-09-13T12:32:48.150Z,37.72
2022-09-13T12:35:31.677Z,38.43
2022-09-13T12:38:50.198Z,38.07
2022-09-13T12:41:31.005Z,38.23
2022-09-13T12:44:33.669Z,38.13
2022-09-13T12:47:13.432Z,39.38
2022-09-13T12:50:40.080Z,39.37
2022-09-13T12:53:17.037Z,39.78
2022-09-13T12:55:59.438Z,40.29
2022-09-13T12:59:09.868Z,39.32
2022-09-13T13:01:38.268Z,38.98
2022-09-13T13:04:20.688Z,39.06
2022-09-13T13:06:55.101Z,40.44
2022-09-13T13:09:28.592Z,38.84
2022-09-13T13:11:58.543Z,37.95
2022-09-13T13:14:39.440Z,39.13
2022-09-13T13:17:34.365Z,39.09
2022-09-13T13:20:47.150Z,39.42
2022-09-13T13:23:29.041Z,39.10
2022-09-13T13:26:10.446Z,40.22
2022-09-13T13:28:43.963Z,39.17
2022-09-13T13:31:31.288Z,40.28
2022-09-13T13:34:01.989Z,41.22
2022-09-13T13:36:29.376Z,39.59
2022-09-13T13:38:57.150Z,39.09
2022-09-13T13:41:33.662Z,39.16
2022-09-13T13:44:02.498Z,38.94
2022-09-13T13:46:32.134Z,39.19
2022-09-13T13:49:30.532Z,40.23
2022-09-13T13:52:14.190Z,40.54
2022-09-13T13:54:53.560Z,41.76
2022-09-13T13:57:21.066Z,40.17
2022-09-13T13:59:54.291Z,40.64
2022-09-13T14:02:31.018Z,40.44
2022-09-13T14:05:22.067Z,41.38
2022-09-13T14:11:17.359Z,41.07
2022-09-13T14:14:02.658Z,43.00
2022-09-13T14:16:49.157Z,41.96
2022-09-13T14:19:44.217Z,44.45
2022-09-13T14:22:25.450Z,44.38
2022-09-13T14:24:54.833Z,42.59
2022-09-13T14:27:29.434Z,43.44
2022-09-13T14:30:00.588Z,43.23
2022-09-13T14:32:37.185Z,44.59
2022-09-13T14:35:27.548Z,42.00
2022-09-13T14:37:56.894Z,42.13
2022-09-13T14:40:26.901Z,43.64
2022-09-13T14:42:56.495Z,41.71
2022-09-13T14:45:30.161Z,43.02
2022-09-13T14:48:09.337Z,42.35
2022-09-13T14:50:48.389Z,42.50
2022-09-13T14:53:22.883Z,42.34
2022-09-13T14:55:55.283Z,43.53
2022-09-13T14:58:39.760Z,42.50
2022-09-13T15:01:11.478Z,40.74
2022-09-13T15:03:45.389Z,40.35
2022-09-13T15:06:28.764Z,40.68
2022-09-13T15:09:26.529Z,40.72
2022-09-13T15:11:53.977Z,41.14
2022-09-13T15:14:24.139Z,40.48
2022-09-13T15:17:02.952Z,40.68
2022-09-13T15:19:36.460Z,41.41
2022-09-13T15:22:14.669Z,41.62
2022-09-13T15:25:02.134Z,40.34
2022-09-13T15:27:30.540Z,41.51
2022-09-13T15:30:01.279Z,41.14
2022-09-13T15:32:43.733Z,42.18
2022-09-13T15:35:23.435Z,41.69
2022-09-13T15:38:30.101Z,42.51
2022-09-13T15:41:01.423Z,42.43
2022-09-13T15:43:30.939Z,44.21
2022-09-13T15:45:59.214Z,44.71
2022-09-13T15:48:32.518Z,44.13
2022-09-13T15:51:14.256Z,44.96
2022-09-13T15:53:44.288Z,45.16
2022-09-13T15:56:20.262Z,44.68
2022-09-13T15:58:48.254Z,45.25
2022-09-13T16:01:17.235Z,46.37
2022-09-13T16:03:46.090Z,46.54
2022-09-13T16:06:13.926Z,46.56
2022-09-13T16:08:41.199Z,46.08
2022-09-13T16:11:08.471Z,46.66
2022-09-13T16:13:36.536Z,46.79
2022-09-13T16:16:05.130Z,46.42
2022-09-13T16:18:32.782Z,47.10
2022-09-13T16:21:04.951Z,47.15
2022-09-13T16:23:32.235Z,48.37
2022-09-13T16:26:00.291Z,47.77
2022-09-13T16:28:28.090Z,47.33
2022-09-13T16:30:55.361Z,46.21
2022-09-13T16:33:22.832Z,46.43
2022-09-13T16:35:50.203Z,45.87
2022-09-13T16:38:18.176Z,45.51
2022-09-13T16:40:45.565Z,45.32
2022-09-13T16:43:13.615Z,47.03
2022-09-13T16:45:41.984Z,48.46
2022-09-13T16:48:09.400Z,47.64
2022-09-13T16:50:42.383Z,48.30
2022-09-13T16:53:09.733Z,48.49
2022-09-13T16:55:37.036Z,48.91
2022-09-13T16:58:04.240Z,49.52
2022-09-13T17:00:31.586Z,50.76
2022-09-13T17:02:59.131Z,51.59
2022-09-13T17:05:26.381Z,52.18
2022-09-13T17:07:53.667Z,52.82
2022-09-13T17:10:21.511Z,53.12
2022-09-13T17:12:49.235Z,53.42
2022-09-13T17:15:16.540Z,53.46
2022-09-13T17:17:44.139Z,53.88
2022-09-13T17:20:13.285Z,54.58
2022-09-13T17:22:41.070Z,53.08
2022-09-13T17:25:09.372Z,54.19
2022-09-13T17:27:36.866Z,53.92
2022-09-13T17:30:05.253Z,54.56
2022-09-13T17:32:32.654Z,55.06
2022-09-13T17:34:59.883Z,55.54
2022-09-13T17:37:27.364Z,55.69
2022-09-13T17:39:54.660Z,55.40
2022-09-13T17:42:23.562Z,55.78
2022-09-13T17:44:51.036Z,55.93
2022-09-13T17:47:18.318Z,56.68
2022-09-13T17:49:47.100Z,56.87
2022-09-13T17:52:14.423Z,56.99
2022-09-13T17:54:41.640Z,56.21
2022-09-13T17:57:11.793Z,55.59
2022-09-13T17:59:39.091Z,56.24
2022-09-13T18:02:06.992Z,55.84
2022-09-13T18:04:34.295Z,56.37
2022-09-13T18:07:01.601Z,57.20
2022-09-13T18:09:29.091Z,57.30
2022-09-13T18:11:56.453Z,57.67
2022-09-13T18:14:24.360Z,58.18
2022-09-13T18:16:55.634Z,58.34
2022-09-13T18:19:39.497Z,58.62
2022-09-13T18:22:10.998Z,58.51
2022-09-13T18:24:39.895Z,58.83
2022-09-13T18:27:07.364Z,58.87
2022-09-13T18:29:34.684Z,58.99
2022-09-13T18:32:02.443Z,60.06
2022-09-13T18:34:29.696Z,60.03
2022-09-13T18:36:56.937Z,60.46
2022-09-13T18:39:24.241Z,60.07
2022-09-13T18:41:51.446Z,60.21
2022-09-13T18:44:21.588Z,59.99
2022-09-13T18:46:50.712Z,59.41
2022-09-13T18:49:18.395Z,60.35
2022-09-13T18:51:45.751Z,60.02
2022-09-13T18:54:16.105Z,59.96
2022-09-13T18:56:44.675Z,60.70
2022-09-13T18:59:12.166Z,60.08
2022-09-13T19:01:42.110Z,61.05
2022-09-13T19:04:16.024Z,61.78
2022-09-13T19:06:48.555Z,62.50
2022-09-13T19:09:17.845Z,62.76
2022-09-13T19:11:48.181Z,61.94
2022-09-13T19:14:16.064Z,62.04
2022-09-13T19:16:44.771Z,62.25
2022-09-13T19:19:12.198Z,60.56
2022-09-13T19:21:39.949Z,60.72
2022-09-13T19:24:10.927Z,61.61
2022-09-13T19:26:42.436Z,62.40
2022-09-13T19:29:14.925Z,62.99
2022-09-13T19:31:44.255Z,62.96
2022-09-13T19:34:12.246Z,62.82
2022-09-13T19:36:39.881Z,63.38
2022-09-13T19:39:08.148Z,63.14
2022-09-13T19:41:37.720Z,63.12
2022-09-13T19:44:05.523Z,63.28
2022-09-13T19:46:37.380Z,63.01
2022-09-13T19:49:05.533Z,63.09
2022-09-13T19:51:35.708Z,62.85
2022-09-13T19:54:04.938Z,62.83
2022-09-13T19:56:34.779Z,62.93
2022-09-13T19:59:03.022Z,63.66
2022-09-13T20:01:34.121Z,63.76
2022-09-13T20:04:04.526Z,63.85
2022-09-13T20:06:44.497Z,64.70
2022-09-13T20:09:13.998Z,63.57
2022-09-13T20:11:45.345Z,63.88
2022-09-13T20:14:15.040Z,65.02
2022-09-13T20:16:43.472Z,65.02
2022-09-13T20:22:10.073Z,66.38
2022-09-13T20:24:37.417Z,66.79
2022-09-13T20:27:07.588Z,65.95
2022-09-13T20:29:34.913Z,65.99
2022-09-13T20:32:02.635Z,66.95
2022-09-13T20:34:30.054Z,67.52
2022-09-13T20:36:57.317Z,67.09
2022-09-13T20:39:24.564Z,67.40
2022-09-13T20:41:52.138Z,67.82
2022-09-13T20:44:19.445Z,67.84
2022-09-13T20:46:47.276Z,67.28
2022-09-13T20:49:14.560Z,67.88
2022-09-13T20:51:41.914Z,68.95
2022-09-13T20:54:12.336Z,69.11
2022-09-13T20:56:40.390Z,69.33
2022-09-13T20:59:07.710Z,70.02
2022-09-13T21:01:35.283Z,69.57
2022-09-13T21:04:03.620Z,69.65
2022-09-13T21:06:37.338Z,69.43
2022-09-13T21:09:07.410Z,70.04
2022-09-13T21:11:36.504Z,69.78
2022-09-13T21:14:06.780Z,69.58
2022-09-13T21:16:36.905Z,69.54
2022-09-13T21:19:04.601Z,68.70
2022-09-13T21:21:35.639Z,69.38
2022-09-13T21:24:04.747Z,69.12
2022-09-13T21:26:33.127Z,69.16
2022-09-13T21:29:00.817Z,68.91
2022-09-13T21:31:30.608Z,69.30
2022-09-13T21:34:28.552Z,69.08
2022-09-13T21:36:59.326Z,69.87
2022-09-13T21:39:26.763Z,70.38
2022-09-13T21:41:54.029Z,69.02
2022-09-13T21:44:21.362Z,68.27
2022-09-13T21:46:48.743Z,68.49
2022-09-13T21:49:16.472Z,69.37
2022-09-13T21:51:48.530Z,69.32
2022-09-13T21:54:18.385Z,70.31
2022-09-13T21:56:51.414Z,69.34
2022-09-13T21:59:19.997Z,68.85
2022-09-13T22:01:51.440Z,68.87
2022-09-13T22:04:22.302Z,68.79
2022-09-13T22:06:53.879Z,67.18
2022-09-13T22:09:24.634Z,66.63
2022-09-13T22:11:51.987Z,67.14
2022-09-13T22:14:24.457Z,67.66
2022-09-13T22:16:53.077Z,67.62
2022-09-13T22:19:28.291Z,67.89
2022-09-13T22:21:59.341Z,67.62
2022-09-13T22:24:29.915Z,68.41
2022-09-13T22:26:59.093Z,68.93
2022-09-13T22:29:26.989Z,68.63
2022-09-13T22:31:54.514Z,68.37
2022-09-13T22:34:24.457Z,68.02
2022-09-13T22:36:54.823Z,68.07
2022-09-13T22:39:22.502Z,67.85
2022-09-13T22:41:50.059Z,68.50
2022-09-13T22:44:17.693Z,67.69
2022-09-13T22:46:45.992Z,67.34
2022-09-13T22:49:15.622Z,67.54
2022-09-13T22:51:45.178Z,67.89
2022-09-13T22:54:14.644Z,66.71
2022-09-13T22:56:42.453Z,66.29
2022-09-13T22:59:14.443Z,66.56
2022-09-13T23:01:42.185Z,66.54
2022-09-13T23:04:11.201Z,67.42
2022-09-13T23:06:39.248Z,67.23
2022-09-13T23:09:08.726Z,67.72
2022-09-13T23:11:39.965Z,67.52
2022-09-13T23:14:12.894Z,67.72
2022-09-13T23:16:46.190Z,67.59
2022-09-13T23:19:14.839Z,68.35
2022-09-13T23:21:43.096Z,70.10
2022-09-13T23:24:13.735Z,70.58
2022-09-13T23:26:42.091Z,69.69
2022-09-13T23:29:18.722Z,69.93
2022-09-13T23:31:47.309Z,69.20
2022-09-13T23:34:15.878Z,69.46
2022-09-13T23:36:44.781Z,69.46
2022-09-13T23:39:17.949Z,69.86
2022-09-13T23:41:47.264Z,69.69
2022-09-13T23:44:15.168Z,69.74
2022-09-13T23:46:42.723Z,72.80
2022-09-13T23:49:10.199Z,72.50
2022-09-13T23:51:37.563Z,71.64
2022-09-13T23:54:05.109Z,71.04
2022-09-13T23:56:33.536Z,71.98
2022-09-13T23:59:03.636Z,71.38
